sensor_id;sensor_type;location;lat;lon;timestamp;P1;durP1;ratioP1;P2;durP2;ratioP2
13090;SDS011;6611;52.604;13.438;2022-09-01T00:00:10;2.83;;;0.90;;
13090;SDS011;6611;52.604;13.438;2022-09-01T00:05:14;2.10;;;1.07;;
13090;SDS011;6611;52.604;13.438;2022-09-01T00:10:16;2.40;;;1.00;;
13090;SDS011;6611;52.604;13.438;2022-09-01T00:15:18;2.33;;;1.30;;
13090;SDS011;6611;52.604;13.438;2022-09-01T00:20:20;2.40;;;1.30;;
13090;SDS011;6611;52.604;13.438;2022-09-01T00:25:23;6.87;;;1.30;;
13090;SDS011;6611;52.604;13.438;2022-09-01T00:30:25;1.80;;;1.37;;
13090;SDS011;6611;52.604;13.438;2022-09-01T00:35:27;1.67;;;1.10;;
13090;SDS011;6611;52.604;13.438;2022-09-01T00:40:30;1.53;;;1.20;;
13090;SDS011;6611;52.604;13.438;2022-09-01T00:45:32;2.00;;;1.20;;
13090;SDS011;6611;52.604;13.438;2022-09-01T00:50:33;1.13;;;1.00;;
13090;SDS011;6611;52.604;13.438;2022-09-01T00:55:38;1.30;;;1.10;;
13090;SDS011;6611;52.604;13.438;2022-09-01T01:00:40;1.57;;;1.00;;
13090;SDS011;6611;52.604;13.438;2022-09-01T01:05:42;1.60;;;0.90;;
13090;SDS011;6611;52.604;13.438;2022-09-01T01:10:54;2.23;;;1.20;;
13090;SDS011;6611;52.604;13.438;2022-09-01T01:15:56;1.03;;;0.93;;
13090;SDS011;6611;52.604;13.438;2022-09-01T01:21:00;3.60;;;1.20;;
13090;SDS011;6611;52.604;13.438;2022-09-01T01:26:23;3.23;;;1.27;;
13090;SDS011;6611;52.604;13.438;2022-09-01T01:31:24;2.57;;;1.30;;
13090;SDS011;6611;52.604;13.438;2022-09-01T01:36:27;1.53;;;1.10;;
13090;SDS011;6611;52.604;13.438;2022-09-01T01:41:33;2.67;;;1.30;;
13090;SDS011;6611;52.604;13.438;2022-09-01T01:46:39;2.73;;;1.50;;
13090;SDS011;6611;52.604;13.438;2022-09-01T01:51:43;3.10;;;1.73;;
13090;SDS011;6611;52.604;13.438;2022-09-01T01:56:45;1.53;;;1.43;;
13090;SDS011;6611;52.604;13.438;2022-09-01T02:01:47;1.90;;;1.50;;
13090;SDS011;6611;52.604;13.438;2022-09-01T02:06:50;1.57;;;1.40;;
13090;SDS011;6611;52.604;13.438;2022-09-01T02:11:53;1.97;;;0.90;;
13090;SDS011;6611;52.604;13.438;2022-09-01T02:16:57;1.80;;;0.87;;
13090;SDS011;6611;52.604;13.438;2022-09-01T02:21:59;1.07;;;0.83;;
13090;SDS011;6611;52.604;13.438;2022-09-01T02:27:03;2.27;;;1.10;;
13090;SDS011;6611;52.604;13.438;2022-09-01T02:32:05;2.80;;;1.00;;
13090;SDS011;6611;52.604;13.438;2022-09-01T02:37:06;1.73;;;1.00;;
13090;SDS011;6611;52.604;13.438;2022-09-01T02:42:09;2.07;;;1.00;;
13090;SDS011;6611;52.604;13.438;2022-09-01T02:47:13;1.40;;;1.03;;
13090;SDS011;6611;52.604;13.438;2022-09-01T02:52:15;1.53;;;1.07;;
13090;SDS011;6611;52.604;13.438;2022-09-01T02:57:21;1.07;;;0.87;;
13090;SDS011;6611;52.604;13.438;2022-09-01T03:02:23;1.90;;;1.37;;
13090;SDS011;6611;52.604;13.438;2022-09-01T03:07:27;1.43;;;1.07;;
13090;SDS011;6611;52.604;13.438;2022-09-01T03:12:31;1.50;;;1.07;;
13090;SDS011;6611;52.604;13.438;2022-09-01T03:17:32;1.33;;;1.23;;
13090;SDS011;6611;52.604;13.438;2022-09-01T03:22:35;1.67;;;1.00;;
13090;SDS011;6611;52.604;13.438;2022-09-01T03:27:38;4.00;;;1.10;;
13090;SDS011;6611;52.604;13.438;2022-09-01T03:32:40;3.40;;;1.53;;
13090;SDS011;6611;52.604;13.438;2022-09-01T03:37:42;1.50;;;1.30;;
13090;SDS011;6611;52.604;13.438;2022-09-01T03:42:45;2.27;;;1.07;;
13090;SDS011;6611;52.604;13.438;2022-09-01T03:47:47;4.00;;;1.33;;
13090;SDS011;6611;52.604;13.438;2022-09-01T03:52:50;2.13;;;1.47;;
13090;SDS011;6611;52.604;13.438;2022-09-01T03:57:55;2.37;;;1.40;;
13090;SDS011;6611;52.604;13.438;2022-09-01T04:02:59;2.83;;;1.43;;
13090;SDS011;6611;52.604;13.438;2022-09-01T04:08:01;2.73;;;1.50;;
13090;SDS011;6611;52.604;13.438;2022-09-01T04:13:06;3.00;;;1.90;;
13090;SDS011;6611;52.604;13.438;2022-09-01T04:18:10;3.40;;;2.80;;
13090;SDS011;6611;52.604;13.438;2022-09-01T04:23:20;4.47;;;2.97;;
13090;SDS011;6611;52.604;13.438;2022-09-01T04:28:31;3.83;;;2.50;;
13090;SDS011;6611;52.604;13.438;2022-09-01T04:33:35;2.93;;;2.47;;
13090;SDS011;6611;52.604;13.438;2022-09-01T04:38:38;2.67;;;1.70;;
13090;SDS011;6611;52.604;13.438;2022-09-01T04:43:41;2.97;;;1.87;;
13090;SDS011;6611;52.604;13.438;2022-09-01T04:48:44;4.90;;;2.10;;
13090;SDS011;6611;52.604;13.438;2022-09-01T04:53:46;1.90;;;1.80;;
13090;SDS011;6611;52.604;13.438;2022-09-01T04:58:50;4.63;;;1.70;;
13090;SDS011;6611;52.604;13.438;2022-09-01T05:03:55;7.00;;;1.70;;
13090;SDS011;6611;52.604;13.438;2022-09-01T05:09:00;1.70;;;1.20;;
13090;SDS011;6611;52.604;13.438;2022-09-01T05:14:03;1.80;;;1.27;;
13090;SDS011;6611;52.604;13.438;2022-09-01T05:19:06;2.47;;;1.67;;
13090;SDS011;6611;52.604;13.438;2022-09-01T05:24:14;1.83;;;1.50;;
13090;SDS011;6611;52.604;13.438;2022-09-01T05:29:19;2.87;;;1.77;;
13090;SDS011;6611;52.604;13.438;2022-09-01T05:34:21;2.60;;;1.67;;
13090;SDS011;6611;52.604;13.438;2022-09-01T05:39:26;3.43;;;1.43;;
13090;SDS011;6611;52.604;13.438;2022-09-01T05:44:29;4.27;;;2.97;;
13090;SDS011;6611;52.604;13.438;2022-09-01T05:49:31;2.97;;;2.17;;
13090;SDS011;6611;52.604;13.438;2022-09-01T05:54:33;2.53;;;1.60;;
13090;SDS011;6611;52.604;13.438;2022-09-01T05:59:36;1.80;;;1.37;;
13090;SDS011;6611;52.604;13.438;2022-09-01T06:04:40;3.30;;;1.60;;
13090;SDS011;6611;52.604;13.438;2022-09-01T06:09:43;2.13;;;1.40;;
13090;SDS011;6611;52.604;13.438;2022-09-01T06:14:48;2.63;;;1.30;;
13090;SDS011;6611;52.604;13.438;2022-09-01T06:19:52;2.40;;;1.20;;
13090;SDS011;6611;52.604;13.438;2022-09-01T06:24:55;1.47;;;1.20;;
13090;SDS011;6611;52.604;13.438;2022-09-01T06:30:00;2.40;;;1.00;;
13090;SDS011;6611;52.604;13.438;2022-09-01T06:35:03;3.67;;;1.20;;
13090;SDS011;6611;52.604;13.438;2022-09-01T06:40:08;2.20;;;1.13;;
13090;SDS011;6611;52.604;13.438;2022-09-01T06:45:18;6.87;;;1.30;;
13090;SDS011;6611;52.604;13.438;2022-09-01T06:50:21;2.17;;;1.10;;
13090;SDS011;6611;52.604;13.438;2022-09-01T06:55:23;5.00;;;1.70;;
13090;SDS011;6611;52.604;13.438;2022-09-01T07:00:26;3.07;;;1.27;;
13090;SDS011;6611;52.604;13.438;2022-09-01T07:05:27;1.50;;;0.70;;
13090;SDS011;6611;52.604;13.438;2022-09-01T07:10:30;2.03;;;1.00;;
13090;SDS011;6611;52.604;13.438;2022-09-01T07:15:36;1.73;;;0.97;;
13090;SDS011;6611;52.604;13.438;2022-09-01T07:20:39;1.50;;;1.00;;
13090;SDS011;6611;52.604;13.438;2022-09-01T07:25:42;2.23;;;1.00;;
13090;SDS011;6611;52.604;13.438;2022-09-01T07:30:48;2.50;;;1.10;;
13090;SDS011;6611;52.604;13.438;2022-09-01T07:35:52;1.27;;;0.80;;
13090;SDS011;6611;52.604;13.438;2022-09-01T07:40:56;1.50;;;1.00;;
13090;SDS011;6611;52.604;13.438;2022-09-01T07:46:02;4.53;;;1.20;;
13090;SDS011;6611;52.604;13.438;2022-09-01T07:51:06;2.93;;;1.27;;
13090;SDS011;6611;52.604;13.438;2022-09-01T07:56:08;2.70;;;0.70;;
13090;SDS011;6611;52.604;13.438;2022-09-01T08:01:12;3.53;;;1.00;;
13090;SDS011;6611;52.604;13.438;2022-09-01T08:06:17;4.30;;;1.00;;
13090;SDS011;6611;52.604;13.438;2022-09-01T08:11:21;3.23;;;0.70;;
13090;SDS011;6611;52.604;13.438;2022-09-01T08:16:26;2.07;;;0.77;;
13090;SDS011;6611;52.604;13.438;2022-09-01T08:21:29;1.70;;;0.90;;
13090;SDS011;6611;52.604;13.438;2022-09-01T08:26:31;5.33;;;1.07;;
13090;SDS011;6611;52.604;13.438;2022-09-01T08:31:34;3.07;;;1.10;;
13090;SDS011;6611;52.604;13.438;2022-09-01T08:36:35;3.70;;;1.10;;
13090;SDS011;6611;52.604;13.438;2022-09-01T08:41:40;2.20;;;0.90;;
13090;SDS011;6611;52.604;13.438;2022-09-01T08:46:44;2.87;;;1.43;;
13090;SDS011;6611;52.604;13.438;2022-09-01T08:51:47;0.90;;;0.80;;
13090;SDS011;6611;52.604;13.438;2022-09-01T08:56:53;1.30;;;0.87;;
13090;SDS011;6611;52.604;13.438;2022-09-01T09:02:00;3.40;;;1.53;;
13090;SDS011;6611;52.604;13.438;2022-09-01T09:07:15;2.23;;;1.00;;
13090;SDS011;6611;52.604;13.438;2022-09-01T09:12:30;2.13;;;0.70;;
13090;SDS011;6611;52.604;13.438;2022-09-01T09:17:42;3.67;;;1.10;;
13090;SDS011;6611;52.604;13.438;2022-09-01T09:22:49;1.60;;;0.97;;
13090;SDS011;6611;52.604;13.438;2022-09-01T09:27:51;1.73;;;0.80;;
13090;SDS011;6611;52.604;13.438;2022-09-01T09:32:55;0.97;;;0.60;;
13090;SDS011;6611;52.604;13.438;2022-09-01T09:38:13;0.93;;;0.70;;
13090;SDS011;6611;52.604;13.438;2022-09-01T09:43:21;4.43;;;1.00;;
13090;SDS011;6611;52.604;13.438;2022-09-01T09:48:27;2.97;;;0.67;;
13090;SDS011;6611;52.604;13.438;2022-09-01T09:53:33;1.67;;;0.83;;
13090;SDS011;6611;52.604;13.438;2022-09-01T09:58:35;1.90;;;0.70;;
13090;SDS011;6611;52.604;13.438;2022-09-01T10:03:42;1.37;;;0.80;;
13090;SDS011;6611;52.604;13.438;2022-09-01T10:08:48;2.70;;;0.60;;
13090;SDS011;6611;52.604;13.438;2022-09-01T10:13:50;1.53;;;0.70;;
13090;SDS011;6611;52.604;13.438;2022-09-01T10:18:54;4.30;;;0.80;;
13090;SDS011;6611;52.604;13.438;2022-09-01T10:24:08;1.20;;;0.70;;
13090;SDS011;6611;52.604;13.438;2022-09-01T10:29:19;1.67;;;0.60;;
13090;SDS011;6611;52.604;13.438;2022-09-01T10:34:26;0.87;;;0.50;;
13090;SDS011;6611;52.604;13.438;2022-09-01T10:39:30;0.90;;;0.60;;
13090;SDS011;6611;52.604;13.438;2022-09-01T10:44:32;1.40;;;0.70;;
13090;SDS011;6611;52.604;13.438;2022-09-01T10:55:02;1.50;;;0.70;;
13090;SDS011;6611;52.604;13.438;2022-09-01T11:05:59;0.90;;;0.60;;
13090;SDS011;6611;52.604;13.438;2022-09-01T11:11:06;0.80;;;0.60;;
13090;SDS011;6611;52.604;13.438;2022-09-01T11:16:33;2.30;;;0.70;;
13090;SDS011;6611;52.604;13.438;2022-09-01T11:21:36;1.50;;;0.60;;
13090;SDS011;6611;52.604;13.438;2022-09-01T11:26:46;1.17;;;0.70;;
13090;SDS011;6611;52.604;13.438;2022-09-01T11:31:48;2.10;;;0.60;;
13090;SDS011;6611;52.604;13.438;2022-09-01T11:36:52;1.00;;;0.50;;
13090;SDS011;6611;52.604;13.438;2022-09-01T11:41:59;0.60;;;0.60;;
13090;SDS011;6611;52.604;13.438;2022-09-01T11:47:05;2.10;;;0.83;;
13090;SDS011;6611;52.604;13.438;2022-09-01T11:52:12;1.43;;;0.67;;
13090;SDS011;6611;52.604;13.438;2022-09-01T11:57:19;3.90;;;0.83;;
13090;SDS011;6611;52.604;13.438;2022-09-01T12:02:23;1.93;;;0.50;;
13090;SDS011;6611;52.604;13.438;2022-09-01T12:07:30;0.60;;;0.40;;
13090;SDS011;6611;52.604;13.438;2022-09-01T12:12:41;1.43;;;0.60;;
13090;SDS011;6611;52.604;13.438;2022-09-01T12:17:42;2.43;;;0.70;;
13090;SDS011;6611;52.604;13.438;2022-09-01T12:22:44;1.40;;;0.50;;
13090;SDS011;6611;52.604;13.438;2022-09-01T12:27:47;0.60;;;0.50;;
13090;SDS011;6611;52.604;13.438;2022-09-01T12:32:48;1.60;;;0.60;;
13090;SDS011;6611;52.604;13.438;2022-09-01T12:37:50;0.87;;;0.60;;
13090;SDS011;6611;52.604;13.438;2022-09-01T12:42:53;3.00;;;0.90;;
13090;SDS011;6611;52.604;13.438;2022-09-01T12:47:55;2.00;;;0.50;;
13090;SDS011;6611;52.604;13.438;2022-09-01T12:52:57;1.13;;;0.60;;
13090;SDS011;6611;52.604;13.438;2022-09-01T12:58:03;2.00;;;0.70;;
13090;SDS011;6611;52.604;13.438;2022-09-01T13:03:10;0.70;;;0.50;;
13090;SDS011;6611;52.604;13.438;2022-09-01T13:08:15;2.07;;;0.60;;
13090;SDS011;6611;52.604;13.438;2022-09-01T13:13:20;1.87;;;0.60;;
13090;SDS011;6611;52.604;13.438;2022-09-01T13:18:24;1.17;;;0.70;;
13090;SDS011;6611;52.604;13.438;2022-09-01T13:23:26;0.97;;;0.50;;
13090;SDS011;6611;52.604;13.438;2022-09-01T13:28:29;1.27;;;0.40;;
13090;SDS011;6611;52.604;13.438;2022-09-01T13:33:31;0.77;;;0.40;;
13090;SDS011;6611;52.604;13.438;2022-09-01T13:38:34;1.07;;;0.50;;
13090;SDS011;6611;52.604;13.438;2022-09-01T13:43:37;1.27;;;0.60;;
13090;SDS011;6611;52.604;13.438;2022-09-01T13:48:39;2.60;;;0.60;;
13090;SDS011;6611;52.604;13.438;2022-09-01T13:53:41;2.00;;;0.53;;
13090;SDS011;6611;52.604;13.438;2022-09-01T13:58:44;0.83;;;0.57;;
13090;SDS011;6611;52.604;13.438;2022-09-01T14:03:47;1.33;;;0.50;;
13090;SDS011;6611;52.604;13.438;2022-09-01T14:08:49;0.93;;;0.50;;
13090;SDS011;6611;52.604;13.438;2022-09-01T14:13:52;1.70;;;0.50;;
13090;SDS011;6611;52.604;13.438;2022-09-01T14:18:54;1.33;;;0.60;;
13090;SDS011;6611;52.604;13.438;2022-09-01T14:23:56;0.93;;;0.50;;
13090;SDS011;6611;52.604;13.438;2022-09-01T14:29:00;0.80;;;0.50;;
13090;SDS011;6611;52.604;13.438;2022-09-01T14:34:02;0.97;;;0.40;;
13090;SDS011;6611;52.604;13.438;2022-09-01T14:39:04;1.50;;;0.60;;
13090;SDS011;6611;52.604;13.438;2022-09-01T14:44:07;1.37;;;0.60;;
13090;SDS011;6611;52.604;13.438;2022-09-01T14:49:08;1.20;;;0.70;;
13090;SDS011;6611;52.604;13.438;2022-09-01T14:54:10;1.93;;;0.53;;
13090;SDS011;6611;52.604;13.438;2022-09-01T14:59:13;0.67;;;0.50;;
13090;SDS011;6611;52.604;13.438;2022-09-01T15:04:17;1.87;;;0.60;;
13090;SDS011;6611;52.604;13.438;2022-09-01T15:09:19;0.53;;;0.53;;
13090;SDS011;6611;52.604;13.438;2022-09-01T15:14:22;2.10;;;0.60;;
13090;SDS011;6611;52.604;13.438;2022-09-01T15:19:24;1.83;;;0.83;;
13090;SDS011;6611;52.604;13.438;2022-09-01T15:24:26;0.50;;;0.40;;
13090;SDS011;6611;52.604;13.438;2022-09-01T15:29:29;1.17;;;0.60;;
13090;SDS011;6611;52.604;13.438;2022-09-01T15:34:33;0.70;;;0.60;;
13090;SDS011;6611;52.604;13.438;2022-09-01T15:39:34;0.53;;;0.53;;
13090;SDS011;6611;52.604;13.438;2022-09-01T15:44:39;0.93;;;0.47;;
13090;SDS011;6611;52.604;13.438;2022-09-01T15:49:40;0.50;;;0.50;;
13090;SDS011;6611;52.604;13.438;2022-09-01T15:54:42;0.70;;;0.60;;
13090;SDS011;6611;52.604;13.438;2022-09-01T15:59:45;0.60;;;0.50;;
13090;SDS011;6611;52.604;13.438;2022-09-01T16:04:47;0.83;;;0.57;;
13090;SDS011;6611;52.604;13.438;2022-09-01T16:09:48;0.57;;;0.50;;
13090;SDS011;6611;52.604;13.438;2022-09-01T16:14:53;2.70;;;0.70;;
13090;SDS011;6611;52.604;13.438;2022-09-01T16:19:55;0.70;;;0.60;;
13090;SDS011;6611;52.604;13.438;2022-09-01T16:25:05;0.60;;;0.60;;
13090;SDS011;6611;52.604;13.438;2022-09-01T16:30:13;0.67;;;0.50;;
13090;SDS011;6611;52.604;13.438;2022-09-01T16:35:21;1.13;;;0.60;;
13090;SDS011;6611;52.604;13.438;2022-09-01T16:40:30;0.70;;;0.50;;
13090;SDS011;6611;52.604;13.438;2022-09-01T16:45:44;1.97;;;0.50;;
13090;SDS011;6611;52.604;13.438;2022-09-01T16:50:55;0.60;;;0.50;;
13090;SDS011;6611;52.604;13.438;2022-09-01T16:56:03;0.60;;;0.43;;
13090;SDS011;6611;52.604;13.438;2022-09-01T17:01:14;0.70;;;0.50;;
13090;SDS011;6611;52.604;13.438;2022-09-01T17:06:27;3.10;;;0.70;;
13090;SDS011;6611;52.604;13.438;2022-09-01T17:11:31;1.83;;;0.70;;
13090;SDS011;6611;52.604;13.438;2022-09-01T17:16:40;1.87;;;0.60;;
13090;SDS011;6611;52.604;13.438;2022-09-01T17:21:44;0.60;;;0.50;;
13090;SDS011;6611;52.604;13.438;2022-09-01T17:26:51;1.03;;;0.60;;
13090;SDS011;6611;52.604;13.438;2022-09-01T17:31:59;1.10;;;0.57;;
13090;SDS011;6611;52.604;13.438;2022-09-01T17:37:13;1.17;;;0.60;;
13090;SDS011;6611;52.604;13.438;2022-09-01T17:42:23;0.80;;;0.70;;
13090;SDS011;6611;52.604;13.438;2022-09-01T17:47:34;1.07;;;0.77;;
13090;SDS011;6611;52.604;13.438;2022-09-01T17:52:46;2.37;;;0.70;;
13090;SDS011;6611;52.604;13.438;2022-09-01T17:57:56;1.00;;;0.80;;
13090;SDS011;6611;52.604;13.438;2022-09-01T18:03:11;4.80;;;0.97;;
13090;SDS011;6611;52.604;13.438;2022-09-01T18:08:24;3.40;;;1.17;;
13090;SDS011;6611;52.604;13.438;2022-09-01T18:13:31;1.83;;;1.10;;
13090;SDS011;6611;52.604;13.438;2022-09-01T18:18:40;4.33;;;1.40;;
13090;SDS011;6611;52.604;13.438;2022-09-01T18:23:43;3.13;;;1.47;;
13090;SDS011;6611;52.604;13.438;2022-09-01T18:28:49;4.03;;;2.87;;
13090;SDS011;6611;52.604;13.438;2022-09-01T18:33:57;1.97;;;1.30;;
13090;SDS011;6611;52.604;13.438;2022-09-01T18:39:09;4.20;;;1.20;;
13090;SDS011;6611;52.604;13.438;2022-09-01T18:44:17;1.23;;;1.00;;
13090;SDS011;6611;52.604;13.438;2022-09-01T18:49:27;2.00;;;0.70;;
13090;SDS011;6611;52.604;13.438;2022-09-01T18:54:37;2.07;;;0.90;;
13090;SDS011;6611;52.604;13.438;2022-09-01T18:59:48;1.10;;;1.00;;
13090;SDS011;6611;52.604;13.438;2022-09-01T19:05:04;1.87;;;1.00;;
13090;SDS011;6611;52.604;13.438;2022-09-01T19:10:12;1.97;;;1.07;;
13090;SDS011;6611;52.604;13.438;2022-09-01T19:15:18;2.00;;;1.10;;
13090;SDS011;6611;52.604;13.438;2022-09-01T19:20:33;5.57;;;1.50;;
13090;SDS011;6611;52.604;13.438;2022-09-01T19:25:40;3.27;;;1.63;;
13090;SDS011;6611;52.604;13.438;2022-09-01T19:30:43;2.77;;;1.30;;
13090;SDS011;6611;52.604;13.438;2022-09-01T19:35:50;1.40;;;1.30;;
13090;SDS011;6611;52.604;13.438;2022-09-01T19:40:59;1.60;;;1.10;;
13090;SDS011;6611;52.604;13.438;2022-09-01T19:46:11;1.80;;;1.20;;
13090;SDS011;6611;52.604;13.438;2022-09-01T19:51:21;3.20;;;1.73;;
13090;SDS011;6611;52.604;13.438;2022-09-01T19:56:27;2.33;;;2.10;;
13090;SDS011;6611;52.604;13.438;2022-09-01T20:01:37;2.17;;;1.97;;
13090;SDS011;6611;52.604;13.438;2022-09-01T20:06:45;2.20;;;2.00;;
13090;SDS011;6611;52.604;13.438;2022-09-01T20:11:50;1.83;;;1.53;;
13090;SDS011;6611;52.604;13.438;2022-09-01T20:16:56;4.77;;;1.70;;
13090;SDS011;6611;52.604;13.438;2022-09-01T20:22:06;1.43;;;1.33;;
13090;SDS011;6611;52.604;13.438;2022-09-01T20:27:28;2.10;;;1.60;;
13090;SDS011;6611;52.604;13.438;2022-09-01T20:32:34;2.13;;;1.80;;
13090;SDS011;6611;52.604;13.438;2022-09-01T20:37:44;5.30;;;2.30;;
13090;SDS011;6611;52.604;13.438;2022-09-01T20:42:50;3.63;;;1.77;;
13090;SDS011;6611;52.604;13.438;2022-09-01T20:48:02;3.13;;;2.10;;
13090;SDS011;6611;52.604;13.438;2022-09-01T20:53:20;2.50;;;2.17;;
13090;SDS011;6611;52.604;13.438;2022-09-01T20:58:32;3.37;;;2.70;;
13090;SDS011;6611;52.604;13.438;2022-09-01T21:03:37;3.70;;;2.13;;
13090;SDS011;6611;52.604;13.438;2022-09-01T21:08:45;2.57;;;2.37;;
13090;SDS011;6611;52.604;13.438;2022-09-01T21:13:50;3.60;;;2.37;;
13090;SDS011;6611;52.604;13.438;2022-09-01T21:19:02;3.50;;;2.57;;
13090;SDS011;6611;52.604;13.438;2022-09-01T21:24:11;3.40;;;2.80;;
13090;SDS011;6611;52.604;13.438;2022-09-01T21:29:18;2.57;;;2.37;;
13090;SDS011;6611;52.604;13.438;2022-09-01T21:34:27;3.00;;;2.60;;
13090;SDS011;6611;52.604;13.438;2022-09-01T21:39:30;2.60;;;2.40;;
13090;SDS011;6611;52.604;13.438;2022-09-01T21:44:32;3.23;;;2.13;;
13090;SDS011;6611;52.604;13.438;2022-09-01T21:49:34;2.20;;;1.97;;
13090;SDS011;6611;52.604;13.438;2022-09-01T21:54:37;3.37;;;2.10;;
13090;SDS011;6611;52.604;13.438;2022-09-01T21:59:38;2.47;;;2.10;;
13090;SDS011;6611;52.604;13.438;2022-09-01T22:04:40;2.10;;;2.00;;
13090;SDS011;6611;52.604;13.438;2022-09-01T22:09:43;2.90;;;2.00;;
13090;SDS011;6611;52.604;13.438;2022-09-01T22:14:46;2.23;;;2.00;;
13090;SDS011;6611;52.604;13.438;2022-09-01T22:19:47;2.60;;;2.10;;
13090;SDS011;6611;52.604;13.438;2022-09-01T22:24:50;3.07;;;2.17;;
13090;SDS011;6611;52.604;13.438;2022-09-01T22:29:52;2.67;;;2.07;;
13090;SDS011;6611;52.604;13.438;2022-09-01T22:34:53;1.83;;;1.70;;
13090;SDS011;6611;52.604;13.438;2022-09-01T22:39:56;3.07;;;2.07;;
13090;SDS011;6611;52.604;13.438;2022-09-01T22:44:58;2.13;;;1.73;;
13090;SDS011;6611;52.604;13.438;2022-09-01T22:49:59;2.17;;;1.80;;
13090;SDS011;6611;52.604;13.438;2022-09-01T22:55:03;3.47;;;2.07;;
13090;SDS011;6611;52.604;13.438;2022-09-01T23:00:06;2.33;;;1.63;;
13090;SDS011;6611;52.604;13.438;2022-09-01T23:05:09;2.50;;;1.83;;
13090;SDS011;6611;52.604;13.438;2022-09-01T23:10:12;2.93;;;1.80;;
13090;SDS011;6611;52.604;13.438;2022-09-01T23:15:15;2.03;;;1.83;;
13090;SDS011;6611;52.604;13.438;2022-09-01T23:20:17;1.80;;;1.53;;
13090;SDS011;6611;52.604;13.438;2022-09-01T23:25:20;3.57;;;2.27;;
13090;SDS011;6611;52.604;13.438;2022-09-01T23:30:23;3.47;;;1.97;;
13090;SDS011;6611;52.604;13.438;2022-09-01T23:35:24;2.37;;;1.60;;
13090;SDS011;6611;52.604;13.438;2022-09-01T23:40:28;2.00;;;1.53;;
13090;SDS011;6611;52.604;13.438;2022-09-01T23:45:30;1.80;;;1.70;;
13090;SDS011;6611;52.604;13.438;2022-09-01T23:50:31;1.70;;;1.43;;
13090;SDS011;6611;52.604;13.438;2022-09-01T23:55:41;1.83;;;1.67;;
